Time;durP1;ratioP1;P1;durP2;ratioP2;P2;SDS_P1;SDS_P2;PMS_P1;PMS_P2;Temp;Humidity;BMP_temperature;BMP_pressure;BME280_temperature;BME280_humidity;BME280_pressure;Samples;Min_cycle;Max_cycle;Signal;HPM_P1;HPM_P2
2023/08/18 00:00:39;;;;;;;12.97;11.57;;;;;;;;;;5077377;28;20227;-86
2023/08/18 00:03:05;;;;;;;12.67;11.47;;;;;;;;;;5075559;28;20186;-87
2023/08/18 00:05:31;;;;;;;11.50;10.33;;;;;;;;;;5063710;28;20605;-86
2023/08/18 00:07:57;;;;;;;12.50;11.30;;;;;;;;;;5071123;28;20617;-86
2023/08/18 00:10:23;;;;;;;13.23;11.87;;;;;;;;;;5060866;28;20273;-83
2023/08/18 00:12:51;;;;;;;13.00;11.63;;;;;;;;;;5075043;28;20202;-84
2023/08/18 00:15:17;;;;;;;13.03;11.53;;;;;;;;;;5066906;28;20195;-83
2023/08/18 00:17:43;;;;;;;14.20;12.00;;;;;;;;;;5072436;28;20233;-83
2023/08/18 00:20:09;;;;;;;14.00;11.70;;;;;;;;;;5066502;28;20637;-83
2023/08/18 00:22:36;;;;;;;12.50;10.93;;;;;;;;;;5074470;28;20186;-84
2023/08/18 00:25:02;;;;;;;14.13;11.87;;;;;;;;;;5071747;28;20205;-84
2023/08/18 00:27:28;;;;;;;14.33;12.50;;;;;;;;;;5054613;28;20202;-84
2023/08/18 00:29:55;;;;;;;14.57;11.80;;;;;;;;;;5072762;28;20190;-84
2023/08/18 00:32:21;;;;;;;17.47;11.90;;;;;;;;;;5072924;28;20176;-83
2023/08/18 00:34:47;;;;;;;17.10;11.90;;;;;;;;;;5078801;28;20208;-83
2023/08/18 00:37:15;;;;;;;16.90;11.23;;;;;;;;;;5083091;28;20194;-83
2023/08/18 00:39:41;;;;;;;13.63;11.37;;;;;;;;;;5083771;28;20206;-84
2023/08/18 00:42:07;;;;;;;14.13;12.13;;;;;;;;;;5079807;28;20194;-83
2023/08/18 00:44:33;;;;;;;14.53;12.43;;;;;;;;;;5089764;28;20176;-84
2023/08/18 00:46:59;;;;;;;14.43;12.43;;;;;;;;;;5081624;28;20230;-84
2023/08/18 00:49:25;;;;;;;13.97;12.37;;;;;;;;;;5092550;28;20186;-84
2023/08/18 00:51:51;;;;;;;14.77;12.40;;;;;;;;;;5078337;28;20173;-84
2023/08/18 00:54:17;;;;;;;18.03;12.80;;;;;;;;;;5089036;28;20202;-84
2023/08/18 00:56:45;;;;;;;17.50;13.00;;;;;;;;;;5093009;28;20173;-84
2023/08/18 00:59:12;;;;;;;13.63;12.13;;;;;;;;;;5087388;28;20231;-84
2023/08/18 01:01:38;;;;;;;22.23;13.87;;;;;;;;;;5079774;28;20178;-84
2023/08/18 01:04:05;;;;;;;14.63;12.57;;;;;;;;;;5089278;28;20280;-84
2023/08/18 01:06:31;;;;;;;15.73;13.27;;;;;;;;;;5091324;28;20167;-84
2023/08/18 01:08:58;;;;;;;15.17;13.23;;;;;;;;;;5080885;28;20259;-84
2023/08/18 01:11:34;;;;;;;16.03;13.70;;;;;;;;;;5065213;28;20194;-84
2023/08/18 01:14:15;;;;;;;16.73;13.87;;;;;;;;;;5081905;28;20170;-84
2023/08/18 01:16:47;;;;;;;16.57;13.10;;;;;;;;;;5089440;28;20160;-82
2023/08/18 01:19:15;;;;;;;15.10;13.40;;;;;;;;;;5091054;28;20719;-84
2023/08/18 01:21:43;;;;;;;14.87;13.17;;;;;;;;;;5090545;28;20179;-84
2023/08/18 01:24:09;;;;;;;17.10;14.30;;;;;;;;;;5089998;28;20176;-84
2023/08/18 01:26:35;;;;;;;13.93;12.47;;;;;;;;;;5089606;28;20174;-84
2023/08/18 01:29:01;;;;;;;15.73;13.30;;;;;;;;;;5088561;28;20185;-85
2023/08/18 01:31:29;;;;;;;17.93;14.37;;;;;;;;;;5076546;28;20179;-84
2023/08/18 01:33:58;;;;;;;16.73;13.80;;;;;;;;;;5076364;28;20182;-84
2023/08/18 01:36:25;;;;;;;18.47;14.73;;;;;;;;;;5076327;28;20182;-85
2023/08/18 01:38:52;;;;;;;18.13;13.63;;;;;;;;;;5077278;28;20175;-84
2023/08/18 01:41:21;;;;;;;16.73;13.27;;;;;;;;;;5068916;28;20193;-84
2023/08/18 01:43:47;;;;;;;16.97;14.13;;;;;;;;;;5080631;28;20213;-84
2023/08/18 01:46:13;;;;;;;16.60;13.63;;;;;;;;;;5071473;28;20196;-85
2023/08/18 01:48:39;;;;;;;15.10;13.17;;;;;;;;;;5080895;28;20173;-85
2023/08/18 01:51:05;;;;;;;17.50;14.10;;;;;;;;;;5081604;28;20642;-84
2023/08/18 01:53:31;;;;;;;15.20;13.67;;;;;;;;;;5075788;28;20188;-84
2023/08/18 01:56:06;;;;;;;17.40;15.23;;;;;;;;;;5073863;28;20197;-86
2023/08/18 01:58:35;;;;;;;18.50;16.50;;;;;;;;;;5072482;28;20183;-84
2023/08/18 02:01:01;;;;;;;19.47;15.17;;;;;;;;;;5077652;28;20217;-86
2023/08/18 02:03:28;;;;;;;16.47;14.77;;;;;;;;;;5075351;28;20249;-83
2023/08/18 02:05:56;;;;;;;18.73;15.77;;;;;;;;;;5072034;28;20719;-84
2023/08/18 02:08:22;;;;;;;17.20;15.00;;;;;;;;;;5077044;28;20183;-85
2023/08/18 02:10:48;;;;;;;19.23;17.27;;;;;;;;;;5074103;28;20214;-85
2023/08/18 02:13:15;;;;;;;16.97;14.80;;;;;;;;;;5073775;28;20185;-85
2023/08/18 02:15:41;;;;;;;18.23;15.93;;;;;;;;;;5050896;28;20268;-84
2023/08/18 02:18:07;;;;;;;17.03;15.20;;;;;;;;;;5073927;28;20277;-84
2023/08/18 02:20:33;;;;;;;17.30;15.50;;;;;;;;;;5074798;28;20198;-85
2023/08/18 02:22:59;;;;;;;17.47;15.00;;;;;;;;;;5069651;28;20178;-85
2023/08/18 02:25:25;;;;;;;16.20;14.00;;;;;;;;;;5065470;28;20183;-85
2023/08/18 02:27:51;;;;;;;17.33;15.07;;;;;;;;;;5075603;28;20204;-84
2023/08/18 02:30:17;;;;;;;16.27;14.67;;;;;;;;;;5067171;28;20474;-83
2023/08/18 02:32:43;;;;;;;14.43;12.93;;;;;;;;;;5064361;28;20189;-83
2023/08/18 02:35:09;;;;;;;15.47;13.40;;;;;;;;;;5067691;28;20181;-83
2023/08/18 02:37:36;;;;;;;17.53;14.90;;;;;;;;;;5064335;28;20664;-84
2023/08/18 02:40:03;;;;;;;14.83;13.30;;;;;;;;;;5073582;28;20570;-84
2023/08/18 02:42:29;;;;;;;14.83;13.37;;;;;;;;;;5072074;28;20266;-83
2023/08/18 02:44:55;;;;;;;14.97;13.37;;;;;;;;;;5071756;28;20220;-83
2023/08/18 02:47:21;;;;;;;14.93;13.20;;;;;;;;;;5071521;28;20180;-83
2023/08/18 02:49:50;;;;;;;14.27;12.77;;;;;;;;;;5078425;28;20185;-83
2023/08/18 02:52:16;;;;;;;15.20;13.47;;;;;;;;;;5074705;28;20188;-83
2023/08/18 02:54:42;;;;;;;14.03;12.63;;;;;;;;;;5070028;28;20544;-83
2023/08/18 02:57:08;;;;;;;15.93;13.23;;;;;;;;;;5076199;28;20193;-83
2023/08/18 02:59:34;;;;;;;12.57;11.30;;;;;;;;;;5069516;28;20235;-84
2023/08/18 03:02:00;;;;;;;13.47;12.03;;;;;;;;;;5070839;28;20629;-83
2023/08/18 03:04:26;;;;;;;13.50;12.03;;;;;;;;;;5075544;28;20627;-83
2023/08/18 03:06:52;;;;;;;13.23;11.97;;;;;;;;;;5072306;28;20183;-83
2023/08/18 03:09:18;;;;;;;14.30;12.83;;;;;;;;;;5057437;28;20248;-83
2023/08/18 03:11:44;;;;;;;15.07;13.50;;;;;;;;;;5072068;28;20217;-83
2023/08/18 03:14:10;;;;;;;14.03;12.60;;;;;;;;;;5064232;28;20188;-83
2023/08/18 03:16:36;;;;;;;14.50;13.10;;;;;;;;;;5073955;28;20177;-83
2023/08/18 03:19:02;;;;;;;14.00;12.43;;;;;;;;;;5073739;28;20185;-83
2023/08/18 03:21:28;;;;;;;13.87;12.33;;;;;;;;;;5052274;28;20190;-84
2023/08/18 03:23:54;;;;;;;13.70;12.27;;;;;;;;;;5069318;28;20585;-84
2023/08/18 03:26:21;;;;;;;14.17;12.67;;;;;;;;;;5076904;28;20271;-83
2023/08/18 03:28:47;;;;;;;13.20;11.87;;;;;;;;;;5070639;28;20207;-84
2023/08/18 03:31:13;;;;;;;15.17;13.57;;;;;;;;;;5063520;28;20182;-84
2023/08/18 03:33:39;;;;;;;14.20;12.80;;;;;;;;;;5070885;28;20219;-83
2023/08/18 03:36:05;;;;;;;12.53;11.33;;;;;;;;;;5070445;28;20194;-84
2023/08/18 03:38:31;;;;;;;15.47;12.83;;;;;;;;;;5073468;28;20184;-84
2023/08/18 03:40:59;;;;;;;13.60;12.23;;;;;;;;;;5072655;28;20202;-80
2023/08/18 03:43:25;;;;;;;11.93;10.70;;;;;;;;;;5065549;28;20183;-82
2023/08/18 03:45:51;;;;;;;12.67;11.37;;;;;;;;;;5072870;28;20185;-82
2023/08/18 03:48:17;;;;;;;13.50;11.97;;;;;;;;;;5065159;28;20589;-82
2023/08/18 03:50:43;;;;;;;13.03;11.73;;;;;;;;;;5068398;28;20186;-82
2023/08/18 03:53:09;;;;;;;13.33;12.03;;;;;;;;;;5053876;28;20267;-82
2023/08/18 03:55:35;;;;;;;12.73;11.40;;;;;;;;;;5050403;28;20710;-83
2023/08/18 03:58:02;;;;;;;12.53;11.27;;;;;;;;;;5065464;28;20579;-83
2023/08/18 04:00:28;;;;;;;12.97;11.67;;;;;;;;;;5068360;28;20228;-84
2023/08/18 04:02:54;;;;;;;15.30;12.17;;;;;;;;;;5074150;28;20181;-81
2023/08/18 04:05:21;;;;;;;12.93;11.83;;;;;;;;;;5043345;28;20579;-81
2023/08/18 04:07:47;;;;;;;13.43;12.00;;;;;;;;;;5066924;28;20188;-82
2023/08/18 04:10:13;;;;;;;12.73;11.43;;;;;;;;;;5071627;28;20191;-82
2023/08/18 04:12:39;;;;;;;13.33;11.93;;;;;;;;;;5061993;28;20177;-83
2023/08/18 04:15:05;;;;;;;13.00;11.67;;;;;;;;;;5069150;28;20778;-84
2023/08/18 04:17:31;;;;;;;13.63;11.83;;;;;;;;;;5073200;28;20257;-84
2023/08/18 04:19:57;;;;;;;13.20;11.80;;;;;;;;;;5074994;28;20774;-83
2023/08/18 04:22:24;;;;;;;13.93;12.40;;;;;;;;;;5074435;28;20198;-84
2023/08/18 04:24:50;;;;;;;14.87;13.37;;;;;;;;;;5077946;28;20189;-82
2023/08/18 04:27:16;;;;;;;14.50;12.93;;;;;;;;;;5057490;28;20228;-82
2023/08/18 04:29:42;;;;;;;12.77;11.57;;;;;;;;;;5067609;28;20196;-82
2023/08/18 04:32:08;;;;;;;13.30;12.00;;;;;;;;;;5068008;28;20206;-83
2023/08/18 04:34:34;;;;;;;17.07;14.10;;;;;;;;;;5063009;28;20197;-83
2023/08/18 04:37:00;;;;;;;13.50;12.20;;;;;;;;;;5057544;28;20610;-85
2023/08/18 04:39:26;;;;;;;16.60;13.83;;;;;;;;;;5075565;28;20208;-81
2023/08/18 04:41:52;;;;;;;15.57;12.63;;;;;;;;;;5057416;28;20606;-83
2023/08/18 04:44:20;;;;;;;14.67;13.17;;;;;;;;;;5071933;28;20188;-82
2023/08/18 04:46:46;;;;;;;14.00;12.60;;;;;;;;;;5066664;28;20249;-83
2023/08/18 04:49:12;;;;;;;14.23;12.73;;;;;;;;;;5070764;28;20188;-83
2023/08/18 04:51:38;;;;;;;13.53;12.13;;;;;;;;;;5075864;28;20191;-86
2023/08/18 04:54:04;;;;;;;14.03;12.53;;;;;;;;;;5079582;28;20181;-86
2023/08/18 04:56:30;;;;;;;15.33;13.83;;;;;;;;;;5059024;28;20177;-87
2023/08/18 04:58:56;;;;;;;14.47;12.70;;;;;;;;;;5077825;28;20180;-86
2023/08/18 05:01:22;;;;;;;15.03;12.67;;;;;;;;;;5068178;28;20628;-86
2023/08/18 05:03:49;;;;;;;14.93;13.33;;;;;;;;;;5074331;28;20177;-86
2023/08/18 05:06:15;;;;;;;14.87;13.20;;;;;;;;;;5070958;28;20161;-87
2023/08/18 05:08:41;;;;;;;14.60;13.10;;;;;;;;;;5068307;28;20224;-86
2023/08/18 05:11:08;;;;;;;14.50;13.00;;;;;;;;;;5050657;28;20185;-86
2023/08/18 05:13:35;;;;;;;15.70;13.23;;;;;;;;;;5056985;28;20193;-85
2023/08/18 05:16:01;;;;;;;14.03;12.57;;;;;;;;;;5070157;28;20653;-85
2023/08/18 05:18:30;;;;;;;17.67;14.37;;;;;;;;;;5073310;28;20546;-81
2023/08/18 05:20:57;;;;;;;17.77;15.33;;;;;;;;;;5069056;28;20267;-86
2023/08/18 05:23:24;;;;;;;18.17;16.23;;;;;;;;;;5071492;28;20177;-85
2023/08/18 05:25:54;;;;;;;21.87;14.97;;;;;;;;;;5071830;28;20684;-86
2023/08/18 05:28:20;;;;;;;16.00;14.30;;;;;;;;;;5076866;28;20198;-87
2023/08/18 05:30:46;;;;;;;15.63;14.00;;;;;;;;;;5072891;28;20185;-86
2023/08/18 05:33:13;;;;;;;16.03;14.33;;;;;;;;;;5075252;28;20689;-87
2023/08/18 05:35:39;;;;;;;17.10;14.63;;;;;;;;;;5072702;28;20820;-88
2023/08/18 05:38:11;;;;;;;16.50;14.57;;;;;;;;;;5075781;28;20188;-85
2023/08/18 05:40:50;;;;;;;15.97;14.23;;;;;;;;;;5067446;28;20209;-85
2023/08/18 05:43:16;;;;;;;15.10;13.40;;;;;;;;;;5074504;28;20188;-84
2023/08/18 05:45:43;;;;;;;17.30;14.57;;;;;;;;;;5069811;28;20180;-84
2023/08/18 05:48:09;;;;;;;18.10;15.67;;;;;;;;;;5077366;28;20176;-85
2023/08/18 05:50:35;;;;;;;18.70;15.37;;;;;;;;;;5072637;28;20193;-84
2023/08/18 05:53:02;;;;;;;18.03;16.17;;;;;;;;;;5055894;28;20185;-85
2023/08/18 05:55:28;;;;;;;17.17;15.37;;;;;;;;;;5075436;28;20257;-84
2023/08/18 05:57:55;;;;;;;18.00;16.20;;;;;;;;;;5076489;28;20205;-84
2023/08/18 06:00:21;;;;;;;18.63;16.17;;;;;;;;;;5059289;28;20745;-80
2023/08/18 06:02:47;;;;;;;17.03;15.23;;;;;;;;;;5068130;28;20197;-84
2023/08/18 06:05:13;;;;;;;17.60;15.80;;;;;;;;;;5077805;28;20201;-83
2023/08/18 06:07:40;;;;;;;17.43;15.67;;;;;;;;;;5074550;28;20185;-82
2023/08/18 06:10:06;;;;;;;18.03;16.23;;;;;;;;;;5052355;28;20189;-82
2023/08/18 06:12:32;;;;;;;20.00;15.90;;;;;;;;;;5076043;28;20197;-81
2023/08/18 06:14:58;;;;;;;19.23;17.07;;;;;;;;;;5072046;28;20185;-80
2023/08/18 06:17:24;;;;;;;21.10;16.70;;;;;;;;;;5075981;28;20224;-82
2023/08/18 06:19:50;;;;;;;17.87;15.40;;;;;;;;;;5081809;28;20220;-82
2023/08/18 06:22:16;;;;;;;20.73;15.60;;;;;;;;;;5077105;28;20200;-80
2023/08/18 06:24:43;;;;;;;18.57;16.57;;;;;;;;;;5079041;28;20625;-81
2023/08/18 06:27:09;;;;;;;16.80;14.97;;;;;;;;;;5076113;28;20239;-80
2023/08/18 06:29:35;;;;;;;17.40;15.70;;;;;;;;;;5073455;28;20189;-81
2023/08/18 06:32:01;;;;;;;18.10;16.20;;;;;;;;;;5077624;28;20196;-85
2023/08/18 06:34:27;;;;;;;17.40;15.60;;;;;;;;;;5077186;28;20179;-80
2023/08/18 06:36:53;;;;;;;17.03;15.33;;;;;;;;;;5074754;28;20209;-83
2023/08/18 06:39:19;;;;;;;16.33;14.77;;;;;;;;;;5075600;28;20275;-81
2023/08/18 06:41:45;;;;;;;14.93;13.43;;;;;;;;;;5073544;28;20193;-81
2023/08/18 06:44:12;;;;;;;16.10;14.50;;;;;;;;;;5072628;28;20645;-80
2023/08/18 06:46:38;;;;;;;16.57;14.87;;;;;;;;;;5074883;28;20257;-82
2023/08/18 06:49:04;;;;;;;16.60;14.50;;;;;;;;;;5063413;28;21272;-82
2023/08/18 06:51:30;;;;;;;14.97;13.37;;;;;;;;;;5072949;28;20196;-80
2023/08/18 06:53:57;;;;;;;14.47;13.03;;;;;;;;;;5071702;28;20182;-80
2023/08/18 06:56:23;;;;;;;15.40;13.80;;;;;;;;;;5083214;28;20187;-83
2023/08/18 06:58:49;;;;;;;14.60;13.10;;;;;;;;;;5080164;28;20284;-83
2023/08/18 07:01:15;;;;;;;14.80;13.30;;;;;;;;;;5077768;28;20274;-80
2023/08/18 07:03:41;;;;;;;17.73;15.73;;;;;;;;;;5076750;28;20188;-81
2023/08/18 07:06:08;;;;;;;16.03;14.33;;;;;;;;;;5073791;28;20196;-81
2023/08/18 07:08:35;;;;;;;16.30;14.60;;;;;;;;;;5078148;28;20186;-82
2023/08/18 07:11:02;;;;;;;17.07;15.37;;;;;;;;;;5072731;28;20198;-83
2023/08/18 07:13:28;;;;;;;15.73;14.23;;;;;;;;;;5055349;28;20211;-81
2023/08/18 07:15:54;;;;;;;18.52;16.35;;;;;;;;;;5082559;28;20430;-84
2023/08/18 07:18:20;;;;;;;18.67;16.70;;;;;;;;;;5067225;28;20179;-81
2023/08/18 07:20:46;;;;;;;17.73;15.83;;;;;;;;;;5073661;28;20299;-83
2023/08/18 07:23:13;;;;;;;17.43;15.17;;;;;;;;;;5072391;28;20185;-80
2023/08/18 07:25:39;;;;;;;19.00;16.60;;;;;;;;;;5074595;28;20189;-80
2023/08/18 07:28:06;;;;;;;16.73;14.97;;;;;;;;;;5071910;28;20672;-81
2023/08/18 07:30:32;;;;;;;17.27;15.00;;;;;;;;;;5074798;28;20573;-80
2023/08/18 07:32:58;;;;;;;15.80;14.20;;;;;;;;;;5054634;28;20431;-79
2023/08/18 07:35:25;;;;;;;18.70;15.43;;;;;;;;;;5077522;28;20196;-79
2023/08/18 07:37:51;;;;;;;16.80;15.03;;;;;;;;;;5077034;28;20185;-80
2023/08/18 07:40:17;;;;;;;18.10;15.60;;;;;;;;;;5053183;28;20205;-80
2023/08/18 07:42:47;;;;;;;17.00;15.20;;;;;;;;;;5073768;28;20200;-80
2023/08/18 07:45:13;;;;;;;15.67;14.17;;;;;;;;;;5077939;28;20181;-79
2023/08/18 07:47:42;;;;;;;16.43;14.83;;;;;;;;;;5078330;28;20190;-80
2023/08/18 07:50:09;;;;;;;18.77;15.83;;;;;;;;;;5081199;28;20208;-79
2023/08/18 07:52:35;;;;;;;18.03;16.33;;;;;;;;;;5077063;28;20197;-80
2023/08/18 07:55:02;;;;;;;17.07;15.37;;;;;;;;;;5074974;28;20653;-79
2023/08/18 07:57:28;;;;;;;16.03;14.47;;;;;;;;;;5052309;28;20230;-80
2023/08/18 07:59:55;;;;;;;17.53;15.73;;;;;;;;;;5076559;28;20221;-84
2023/08/18 08:02:21;;;;;;;16.73;15.03;;;;;;;;;;5068043;28;20180;-80
2023/08/18 08:04:47;;;;;;;16.30;14.63;;;;;;;;;;5070692;28;20656;-80
2023/08/18 08:07:13;;;;;;;15.90;14.30;;;;;;;;;;5076197;28;20694;-80
2023/08/18 08:09:40;;;;;;;14.53;12.30;;;;;;;;;;5078349;28;20186;-80
2023/08/18 08:12:06;;;;;;;13.37;11.80;;;;;;;;;;5079359;28;20207;-82
2023/08/18 08:14:32;;;;;;;14.30;12.90;;;;;;;;;;5083170;28;20212;-79
2023/08/18 08:16:58;;;;;;;11.90;10.80;;;;;;;;;;5072779;28;20196;-83
2023/08/18 08:19:25;;;;;;;10.43;9.40;;;;;;;;;;5058537;28;20255;-82
2023/08/18 08:21:52;;;;;;;9.93;9.03;;;;;;;;;;5075237;28;20221;-86
2023/08/18 08:24:18;;;;;;;8.87;8.07;;;;;;;;;;5076148;28;20186;-90
2023/08/18 08:26:44;;;;;;;9.27;7.90;;;;;;;;;;5060831;28;20185;-87
2023/08/18 08:29:10;;;;;;;11.00;9.40;;;;;;;;;;5074931;28;20179;-87
2023/08/18 08:31:37;;;;;;;9.60;8.80;;;;;;;;;;5070665;28;20191;-86
2023/08/18 08:34:04;;;;;;;10.67;7.80;;;;;;;;;;5072787;28;20630;-86
2023/08/18 08:36:32;;;;;;;10.20;9.23;;;;;;;;;;5082906;28;20254;-89
2023/08/18 08:39:00;;;;;;;10.40;9.33;;;;;;;;;;5074783;28;20191;-87
2023/08/18 08:41:27;;;;;;;9.53;8.63;;;;;;;;;;5066521;28;20194;-86
2023/08/18 08:43:53;;;;;;;9.33;8.53;;;;;;;;;;5071427;28;20186;-87
2023/08/18 08:46:20;;;;;;;9.70;8.80;;;;;;;;;;5070956;28;20180;-87
2023/08/18 08:48:47;;;;;;;8.30;7.57;;;;;;;;;;5076138;28;20185;-88
2023/08/18 08:51:13;;;;;;;9.73;8.73;;;;;;;;;;5081389;28;20190;-87
2023/08/18 08:53:50;;;;;;;9.03;8.13;;;;;;;;;;5071541;28;20198;-88
2023/08/18 08:56:18;;;;;;;9.77;7.97;;;;;;;;;;5077379;28;20184;-86
2023/08/18 08:58:44;;;;;;;9.30;8.40;;;;;;;;;;5064065;28;20209;-87
2023/08/18 09:01:10;;;;;;;9.07;8.27;;;;;;;;;;5075617;28;20210;-87
2023/08/18 09:03:37;;;;;;;8.13;7.43;;;;;;;;;;5074206;28;20187;-86
2023/08/18 09:06:03;;;;;;;9.47;8.57;;;;;;;;;;5079480;28;20178;-86
2023/08/18 09:08:29;;;;;;;9.07;8.20;;;;;;;;;;5059181;28;20186;-87
2023/08/18 09:10:55;;;;;;;7.77;6.97;;;;;;;;;;5068063;28;20216;-88
2023/08/18 09:13:21;;;;;;;7.47;6.67;;;;;;;;;;5077593;28;20188;-87
2023/08/18 09:15:47;;;;;;;7.00;6.40;;;;;;;;;;5066074;28;20205;-87
2023/08/18 09:18:14;;;;;;;7.33;6.63;;;;;;;;;;5080573;28;20195;-87
2023/08/18 09:20:44;;;;;;;10.90;7.27;;;;;;;;;;5074375;28;20247;-86
2023/08/18 09:23:11;;;;;;;6.37;5.80;;;;;;;;;;5081888;28;20181;-89
2023/08/18 09:25:39;;;;;;;9.15;6.50;;;;;;;;;;5082345;28;20439;-86
2023/08/18 09:28:05;;;;;;;7.47;5.87;;;;;;;;;;5082906;28;20264;-87
2023/08/18 09:30:31;;;;;;;7.30;5.47;;;;;;;;;;5072620;28;20177;-87
2023/08/18 09:33:00;;;;;;;6.70;6.13;;;;;;;;;;5062870;28;20190;-86
2023/08/18 09:35:27;;;;;;;6.97;6.37;;;;;;;;;;5077914;28;20182;-86
2023/08/18 09:37:58;;;;;;;8.30;5.43;;;;;;;;;;5057570;28;20193;-88
2023/08/18 09:40:24;;;;;;;8.37;6.10;;;;;;;;;;5062263;28;20755;-87
2023/08/18 09:42:51;;;;;;;6.00;5.50;;;;;;;;;;5080340;28;20188;-86
2023/08/18 09:45:17;;;;;;;6.77;6.07;;;;;;;;;;5084475;28;20193;-86
2023/08/18 09:47:43;;;;;;;6.20;5.50;;;;;;;;;;5070022;28;20209;-86
2023/08/18 09:50:13;;;;;;;6.07;5.57;;;;;;;;;;5079463;28;20201;-85
2023/08/18 09:52:41;;;;;;;6.10;5.60;;;;;;;;;;5078007;28;20625;-87
2023/08/18 09:55:12;;;;;;;6.07;5.57;;;;;;;;;;5079837;28;20189;-87
2023/08/18 09:57:40;;;;;;;7.57;6.67;;;;;;;;;;5076811;28;20289;-88
2023/08/18 10:00:08;;;;;;;6.43;5.70;;;;;;;;;;5075645;28;20587;-86
2023/08/18 10:02:34;;;;;;;6.07;5.57;;;;;;;;;;5082712;28;20181;-87
2023/08/18 10:05:01;;;;;;;6.63;6.03;;;;;;;;;;5082704;28;20169;-86
2023/08/18 10:07:28;;;;;;;7.10;6.40;;;;;;;;;;5083391;28;20222;-85
2023/08/18 10:09:55;;;;;;;7.07;6.47;;;;;;;;;;5078275;28;20181;-84
2023/08/18 10:12:21;;;;;;;6.57;5.97;;;;;;;;;;5074789;28;20235;-86
2023/08/18 10:14:49;;;;;;;6.90;6.30;;;;;;;;;;5078086;28;20212;-85
2023/08/18 10:17:15;;;;;;;7.50;5.93;;;;;;;;;;5079482;28;20213;-86
2023/08/18 10:19:55;;;;;;;7.03;6.43;;;;;;;;;;5064035;28;20207;-85
2023/08/18 10:22:25;;;;;;;7.07;6.53;;;;;;;;;;5089498;28;20175;-84
2023/08/18 10:24:51;;;;;;;7.20;6.60;;;;;;;;;;5081128;28;20598;-86
2023/08/18 10:27:29;;;;;;;6.50;5.90;;;;;;;;;;5071329;28;20229;-85
2023/08/18 10:30:22;;;;;;;8.57;6.67;;;;;;;;;;5078759;28;20196;-85
2023/08/18 10:32:48;;;;;;;7.33;6.73;;;;;;;;;;5069324;28;20191;-85
2023/08/18 10:35:21;;;;;;;6.70;6.17;;;;;;;;;;5080417;28;20185;-85
2023/08/18 10:37:50;;;;;;;7.70;7.10;;;;;;;;;;5070213;28;20181;-86
2023/08/18 10:40:27;;;;;;;7.43;6.73;;;;;;;;;;5083730;28;20305;-84
2023/08/18 10:42:57;;;;;;;7.63;6.97;;;;;;;;;;5089577;28;20180;-84
2023/08/18 10:45:24;;;;;;;9.30;8.43;;;;;;;;;;5090144;28;20181;-83
2023/08/18 10:47:51;;;;;;;13.60;12.30;;;;;;;;;;5087551;28;20191;-84
2023/08/18 10:50:19;;;;;;;9.60;8.80;;;;;;;;;;5087230;28;20184;-82
2023/08/18 10:52:45;;;;;;;9.57;8.67;;;;;;;;;;5088342;28;20173;-86
2023/08/18 10:55:11;;;;;;;9.73;8.93;;;;;;;;;;5092942;28;20179;-85
2023/08/18 10:57:37;;;;;;;11.17;9.33;;;;;;;;;;5082820;28;20193;-85
2023/08/18 11:00:11;;;;;;;10.13;9.10;;;;;;;;;;5079964;28;20217;-84
2023/08/18 11:02:37;;;;;;;9.17;8.37;;;;;;;;;;5083611;28;20220;-85
2023/08/18 11:05:07;;;;;;;9.60;8.70;;;;;;;;;;5067550;28;20188;-83
2023/08/18 11:07:34;;;;;;;9.83;8.93;;;;;;;;;;5068682;28;20213;-85
2023/08/18 11:10:00;;;;;;;11.00;10.07;;;;;;;;;;5094701;28;20220;-84
2023/08/18 11:12:26;;;;;;;10.80;9.90;;;;;;;;;;5086201;28;20178;-85
2023/08/18 11:14:52;;;;;;;9.87;9.07;;;;;;;;;;5093735;28;20191;-85
2023/08/18 11:17:18;;;;;;;11.47;10.27;;;;;;;;;;5090767;28;20180;-84
2023/08/18 11:19:44;;;;;;;10.07;9.13;;;;;;;;;;5086984;28;20226;-85
2023/08/18 11:22:11;;;;;;;10.00;8.93;;;;;;;;;;5096499;28;20162;-86
2023/08/18 11:24:38;;;;;;;9.73;8.90;;;;;;;;;;5087580;28;20181;-83
2023/08/18 11:27:04;;;;;;;8.97;8.20;;;;;;;;;;5063446;28;20202;-86
2023/08/18 11:29:30;;;;;;;9.80;9.00;;;;;;;;;;5087761;28;20219;-82
2023/08/18 11:31:56;;;;;;;10.80;9.27;;;;;;;;;;5084819;28;20210;-84
2023/08/18 11:34:22;;;;;;;9.53;8.63;;;;;;;;;;5076104;28;20206;-83
2023/08/18 11:36:48;;;;;;;10.03;9.03;;;;;;;;;;5090851;28;20212;-85
2023/08/18 11:39:15;;;;;;;9.93;9.03;;;;;;;;;;5086224;28;20251;-84
2023/08/18 11:41:45;;;;;;;10.30;9.33;;;;;;;;;;5096356;28;20206;-85
2023/08/18 11:44:11;;;;;;;11.80;10.70;;;;;;;;;;5090690;28;20154;-84
2023/08/18 11:46:39;;;;;;;12.57;11.27;;;;;;;;;;5094646;28;20182;-82
2023/08/18 11:49:18;;;;;;;12.50;11.40;;;;;;;;;;5083711;28;20199;-83
2023/08/18 11:51:57;;;;;;;10.80;9.80;;;;;;;;;;5062128;28;20186;-82
2023/08/18 11:54:24;;;;;;;12.00;10.77;;;;;;;;;;5063767;28;20184;-82
2023/08/18 11:56:50;;;;;;;12.10;11.03;;;;;;;;;;5071540;28;20193;-82
2023/08/18 11:59:23;;;;;;;13.53;12.20;;;;;;;;;;5079600;28;20284;-81
2023/08/18 12:01:53;;;;;;;13.10;11.73;;;;;;;;;;5058131;28;20278;-85
2023/08/18 12:04:24;;;;;;;13.20;11.87;;;;;;;;;;5063224;28;20189;-83
2023/08/18 12:06:50;;;;;;;11.13;10.03;;;;;;;;;;5059054;28;20188;-84
2023/08/18 12:09:16;;;;;;;12.00;11.00;;;;;;;;;;5079427;28;20221;-84
2023/08/18 12:11:42;;;;;;;12.93;11.73;;;;;;;;;;5048211;28;20184;-83
2023/08/18 12:14:08;;;;;;;13.07;11.90;;;;;;;;;;5056744;28;20192;-84
2023/08/18 12:16:34;;;;;;;11.23;10.33;;;;;;;;;;5077963;28;20196;-83
2023/08/18 12:19:01;;;;;;;12.70;11.60;;;;;;;;;;5067703;28;20707;-84
2023/08/18 12:21:29;;;;;;;13.67;12.30;;;;;;;;;;5067110;28;20260;-84
2023/08/18 12:23:56;;;;;;;11.57;10.50;;;;;;;;;;5073259;28;20189;-84
2023/08/18 12:26:22;;;;;;;10.90;9.90;;;;;;;;;;5064163;28;20196;-83
2023/08/18 12:28:48;;;;;;;13.07;10.57;;;;;;;;;;5077606;28;20206;-86
2023/08/18 12:31:17;;;;;;;11.93;10.73;;;;;;;;;;5070054;28;20198;-85
2023/08/18 12:33:44;;;;;;;12.60;11.50;;;;;;;;;;5065360;28;20188;-85
2023/08/18 12:36:10;;;;;;;11.53;10.53;;;;;;;;;;5076389;28;20184;-86
2023/08/18 12:38:36;;;;;;;12.37;11.23;;;;;;;;;;5076237;28;20655;-84
2023/08/18 12:41:03;;;;;;;13.47;12.27;;;;;;;;;;5067209;28;20204;-84
2023/08/18 12:43:29;;;;;;;12.43;11.33;;;;;;;;;;5074630;28;20183;-85
2023/08/18 12:45:56;;;;;;;12.43;11.33;;;;;;;;;;5065500;28;20209;-85
2023/08/18 12:48:22;;;;;;;12.97;11.83;;;;;;;;;;5074901;28;20270;-84
2023/08/18 12:50:48;;;;;;;12.87;11.77;;;;;;;;;;5050175;28;20188;-83
2023/08/18 12:53:14;;;;;;;11.97;10.90;;;;;;;;;;5071259;28;20196;-85
2023/08/18 12:55:40;;;;;;;13.20;12.00;;;;;;;;;;5068177;28;20273;-84
2023/08/18 12:58:06;;;;;;;13.77;12.47;;;;;;;;;;5069294;28;20191;-83
2023/08/18 13:00:32;;;;;;;13.57;12.43;;;;;;;;;;5057791;28;20230;-89
2023/08/18 13:02:58;;;;;;;12.93;11.73;;;;;;;;;;5072629;28;20214;-87
2023/08/18 13:05:24;;;;;;;12.07;10.97;;;;;;;;;;5071302;28;20290;-87
2023/08/18 13:07:52;;;;;;;14.53;12.87;;;;;;;;;;5070540;28;20195;-87
2023/08/18 13:10:18;;;;;;;13.93;12.47;;;;;;;;;;5074115;28;20225;-87
2023/08/18 13:12:44;;;;;;;11.73;10.73;;;;;;;;;;5071521;28;20199;-87
2023/08/18 13:15:10;;;;;;;11.63;10.53;;;;;;;;;;5078838;28;20203;-87
2023/08/18 13:17:36;;;;;;;11.70;10.37;;;;;;;;;;5079709;28;20192;-85
2023/08/18 13:20:03;;;;;;;12.43;11.20;;;;;;;;;;5074973;28;20215;-89
2023/08/18 13:22:29;;;;;;;11.63;10.73;;;;;;;;;;5069248;28;20203;-85
2023/08/18 13:24:55;;;;;;;9.97;9.10;;;;;;;;;;5068021;28;20199;-85
2023/08/18 13:27:21;;;;;;;9.87;8.97;;;;;;;;;;5072669;28;20200;-86
2023/08/18 13:29:47;;;;;;;10.23;9.43;;;;;;;;;;5060187;28;20183;-87
2023/08/18 13:32:13;;;;;;;8.17;7.43;;;;;;;;;;5061692;28;20667;-86
2023/08/18 13:34:40;;;;;;;10.67;9.10;;;;;;;;;;5065510;28;20236;-88
2023/08/18 13:37:06;;;;;;;8.87;8.07;;;;;;;;;;5065769;28;20273;-86
2023/08/18 13:39:32;;;;;;;9.13;8.40;;;;;;;;;;5058900;28;20548;-87
2023/08/18 13:41:58;;;;;;;10.40;9.30;;;;;;;;;;5053673;28;20201;-86
2023/08/18 13:44:24;;;;;;;9.90;8.80;;;;;;;;;;5050694;28;20185;-87
2023/08/18 13:46:50;;;;;;;9.90;9.03;;;;;;;;;;5068555;28;20181;-86
2023/08/18 13:49:16;;;;;;;10.10;9.30;;;;;;;;;;5074003;28;20199;-86
2023/08/18 13:51:42;;;;;;;10.50;8.37;;;;;;;;;;5073819;28;20180;-85
2023/08/18 13:54:13;;;;;;;10.53;9.47;;;;;;;;;;5066931;28;20223;-86
2023/08/18 13:56:40;;;;;;;9.77;8.97;;;;;;;;;;5069045;28;20230;-86
2023/08/18 13:59:06;;;;;;;9.77;8.97;;;;;;;;;;5067058;28;20310;-84
2023/08/18 14:01:32;;;;;;;11.50;9.13;;;;;;;;;;5078431;28;20330;-85
2023/08/18 14:03:59;;;;;;;9.63;8.83;;;;;;;;;;5069792;28;20187;-85
2023/08/18 14:06:25;;;;;;;10.67;9.67;;;;;;;;;;5072167;28;20173;-87
2023/08/18 14:08:51;;;;;;;10.03;9.17;;;;;;;;;;5075241;28;20256;-87
2023/08/18 14:11:18;;;;;;;9.88;9.07;;;;;;;;;;5074215;28;20162;-86
2023/08/18 14:13:44;;;;;;;12.27;11.30;;;;;;;;;;5084075;28;20199;-88
2023/08/18 14:16:10;;;;;;;10.83;9.93;;;;;;;;;;5079048;28;20628;-87
2023/08/18 14:18:36;;;;;;;11.47;10.47;;;;;;;;;;5083959;28;20172;-86
2023/08/18 14:21:04;;;;;;;11.40;10.30;;;;;;;;;;5086921;28;20200;-88